Observations for BARI PALESE MACCHIE, Italy (LIBD)

LIBD 141120Z 23005KT 170V280 9999 FEW040 18/08 Q1009
LIBD 141050Z 21006KT 180V250 9999 FEW040 18/08 Q1009
LIBD 141020Z VRB01KT 9999 FEW040 18/06 Q1009
LIBD 140950Z 21003KT 180V280 9999 FEW040 17/07 Q1009
LIBD 140920Z 19003KT 150V220 9999 FEW040 16/09 Q1009
LIBD 140850Z 20003KT 150V240 9999 FEW040 14/08 Q1009
LIBD 140820Z VRB02KT 9999 FEW040 13/08 Q1009
LIBD 140750Z 22004KT CAVOK 12/07 Q1009  
LIBD 140720Z 23005KT CAVOK 12/06 Q1009  
LIBD 140650Z 23005KT CAVOK 10/06 Q1009  
LIBD 140620Z 22006KT CAVOK 09/06 Q1008  
LIBD 140550Z 22006KT CAVOK 09/05 Q1008  
LIBD 140520Z 22006KT CAVOK 09/06 Q1008  
LIBD 140450Z 22006KT CAVOK 08/06 Q1008  
LIBD 140420Z 22006KT CAVOK 09/06 Q1008  
LIBD 140350Z 22007KT CAVOK 09/06 Q1008  
LIBD 140320Z 22006KT CAVOK 09/06 Q1008  
LIBD 140250Z 23006KT CAVOK 09/06 Q1008  
LIBD 140220Z 23006KT CAVOK 10/06 Q1008  
LIBD 140150Z 22006KT CAVOK 10/06 Q1008  
LIBD 140120Z 24006KT CAVOK 10/06 Q1007  
LIBD 140050Z 23006KT CAVOK 10/07 Q1008  
LIBD 140020Z 23007KT CAVOK 10/07 Q1008  
LIBD 132350Z 23005KT CAVOK 10/07 Q1008  
LIBD 132320Z 23008KT CAVOK 12/07 Q1008  
LIBD 132250Z 23004KT 200V260 CAVOK 12/07 Q1008  
LIBD 132220Z 25006KT CAVOK 12/07 Q1008  
LIBD 132150Z 24006KT CAVOK 13/07 Q1008  
LIBD 132120Z 23005KT CAVOK 13/07 Q1008  
LIBD 132050Z 25007KT CAVOK 13/07 Q1007  
LIBD 132020Z 25007KT CAVOK 14/07 Q1008  
LIBD 131950Z 25008KT 9999 FEW045 15/07 Q1007
LIBD 131920Z 25008KT 9999 FEW045 15/07 Q1007
LIBD 131850Z 26010KT 9999 FEW040 16/07 Q1006
LIBD 131820Z 25008KT 9999 FEW040 16/08 Q1006
LIBD 131750Z 26008KT 9999 FEW040 16/08 Q1005
LIBD 131720Z 22004KT 190V250 9999 FEW040 16/10 Q1005
LIBD 131650Z 27006KT 9999 FEW040 17/11 Q1005
LIBD 131620Z 26005KT 9999 FEW040 18/11 Q1004
LIBD 131550Z 23005KT 9999 SCT030 18/11 Q1004
LIBD 131520Z 26006KT 9999 SCT030 19/10 Q1003
LIBD 131450Z 24004KT 200V270 9999 SCT030 19/11 Q1003
LIBD 131420Z 23005KT 200V260 9999 SCT030 19/12 Q1003
LIBD 131350Z 23006KT 9999 FEW030 19/12 Q1002
LIBD 131320Z 20005KT 170V230 9999 FEW030 20/11 Q1002
LIBD 131250Z 22006KT 190V250 9999 FEW020 19/11 Q1001
LIBD 131220Z 23006KT 190V260 9999 FEW020 19/11 Q1001
LIBD 131150Z 20007KT 170V240 9999 FEW030 19/11 Q1001
LIBD 131120Z 21007KT 160V250 9999 FEW030 19/10 Q1000
LIBD 131050Z 21005KT 170V250 9999 FEW030 20/11 Q1000